createdAt,value
2017-04-29T00:03:03.129Z,1006.1
2017-04-29T00:13:14.442Z,1006.2
2017-04-29T00:23:25.735Z,1006.1
2017-04-29T00:33:36.997Z,1006.2
2017-04-29T00:43:48.352Z,1006.2
2017-04-29T00:53:59.773Z,1006.2
2017-04-29T01:04:11.227Z,1006.4
2017-04-29T01:14:22.664Z,1006.5
2017-04-29T01:24:34.107Z,1006.4
2017-04-29T01:34:45.583Z,1006.6
2017-04-29T01:44:57.110Z,1006.6
2017-04-29T01:55:08.471Z,1006.6
2017-04-29T02:05:19.859Z,1006.7
2017-04-29T02:15:31.348Z,1006.7
2017-04-29T02:25:42.794Z,1006.7
2017-04-29T02:35:54.252Z,1006.7
2017-04-29T02:46:05.717Z,1006.7
2017-04-29T02:56:17.147Z,1006.6
2017-04-29T03:06:28.585Z,1006.8
2017-04-29T03:16:40.083Z,1006.8
2017-04-29T03:26:51.587Z,1006.9
2017-04-29T03:37:03.104Z,1007
2017-04-29T03:47:14.665Z,1007.1
2017-04-29T03:57:26.324Z,1007
2017-04-29T04:07:37.909Z,1007
2017-04-29T04:17:49.456Z,1007
2017-04-29T04:28:01.025Z,1007
2017-04-29T04:38:12.613Z,1007
2017-04-29T04:48:24.049Z,1007.1
2017-04-29T04:58:35.390Z,1007.2
2017-04-29T05:08:46.734Z,1007.3
2017-04-29T05:18:58.066Z,1007.3
2017-04-29T05:29:09.394Z,1007.3
2017-04-29T05:39:20.547Z,1007.4
2017-04-29T05:49:31.620Z,1007.4
2017-04-29T05:59:42.587Z,1007.4
2017-04-29T06:09:53.450Z,1007.5
2017-04-29T06:20:04.237Z,1007.6
2017-04-29T06:30:14.891Z,1007.7
2017-04-29T06:40:25.505Z,1007.7
2017-04-29T06:50:36.046Z,1007.8
2017-04-29T07:00:46.506Z,1007.9
2017-04-29T07:10:56.846Z,1007.9
2017-04-29T07:21:06.793Z,1007.8
2017-04-29T07:31:16.345Z,1008
2017-04-29T07:41:25.990Z,1008.1
2017-04-29T07:51:35.806Z,1008
2017-04-29T08:01:45.670Z,1007.9
2017-04-29T08:11:55.470Z,1007.8
2017-04-29T08:22:05.217Z,1008
2017-04-29T08:32:14.921Z,1008.1
2017-04-29T08:42:24.734Z,1008.3
2017-04-29T08:52:34.597Z,1008.4
2017-04-29T09:02:44.435Z,1008.3
2017-04-29T09:12:54.366Z,1008.4
2017-04-29T09:23:04.373Z,1008.5
2017-04-29T09:33:14.274Z,1008.6
2017-04-29T09:43:23.735Z,1008.6
2017-04-29T09:53:32.653Z,1008.6
2017-04-29T10:03:41.460Z,1008.4
2017-04-29T10:13:50.535Z,1008.5
2017-04-29T10:23:59.948Z,1008.5
2017-04-29T10:34:09.326Z,1008.5
2017-04-29T10:44:18.211Z,1008.4
2017-04-29T10:54:27.041Z,1008.4
2017-04-29T11:04:36.120Z,1008.3
2017-04-29T11:14:45.293Z,1008.3
2017-04-29T11:24:54.581Z,1008.4
2017-04-29T11:35:03.971Z,1009.2
2017-04-29T11:45:13.011Z,1008.2
2017-04-29T11:55:22.063Z,1008.3
2017-04-29T12:05:31.360Z,1008.9
2017-04-29T12:15:40.581Z,1008.1
2017-04-29T12:25:49.776Z,1008.1
2017-04-29T12:35:58.963Z,1008.3
2017-04-29T12:46:07.960Z,1008.2
2017-04-29T12:56:17.034Z,1008.2
2017-04-29T13:06:26.304Z,1008.3
2017-04-29T13:16:35.603Z,1008.2
2017-04-29T13:26:44.878Z,1008.4
2017-04-29T13:36:54.060Z,1008.3
2017-04-29T13:47:02.855Z,1008.2
2017-04-29T13:57:11.760Z,1008.3
2017-04-29T14:07:20.653Z,1008.1
2017-04-29T14:17:29.470Z,1008
2017-04-29T14:27:37.989Z,1007.9
2017-04-29T14:37:46.472Z,1007.8
2017-04-29T14:47:55.323Z,1007.9
2017-04-29T14:58:04.389Z,1007.8
2017-04-29T15:08:13.459Z,1007.8
2017-04-29T15:18:22.646Z,1007.8
2017-04-29T15:28:31.742Z,1007.8
2017-04-29T15:38:41.087Z,1007.8
2017-04-29T15:48:50.116Z,1007.8
2017-04-29T15:58:59.090Z,1007.7
2017-04-29T16:09:08.476Z,1007.7
2017-04-29T16:19:18.074Z,1007.6
2017-04-29T16:29:27.813Z,1007.6
2017-04-29T16:39:37.377Z,1007.6
2017-04-29T16:49:46.883Z,1007.4
2017-04-29T16:59:56.147Z,1007.4
2017-04-29T17:10:05.408Z,1007.3
2017-04-29T17:20:14.268Z,1007.4
2017-04-29T17:30:23.400Z,1007.4
2017-04-29T17:40:32.366Z,1007.5
2017-04-29T17:50:41.649Z,1007.5
2017-04-29T18:00:51.174Z,1007.4
2017-04-29T18:11:00.869Z,1007.4
2017-04-29T18:21:10.703Z,1007.6
2017-04-29T18:31:20.698Z,1007.4
2017-04-29T18:41:30.896Z,1007.5
2017-04-29T18:51:41.254Z,1007.5
2017-04-29T19:01:51.774Z,1007.5
2017-04-29T19:12:02.237Z,1007.6
2017-04-29T19:22:12.855Z,1007.7
2017-04-29T19:32:23.500Z,1007.6
2017-04-29T19:42:34.206Z,1007.7
2017-04-29T19:52:44.973Z,1007.7
2017-04-29T20:02:55.737Z,1007.7
2017-04-29T20:13:06.557Z,1007.6
2017-04-29T20:23:17.365Z,1007.6
2017-04-29T20:33:28.206Z,1007.6
2017-04-29T20:43:39.077Z,1007.6
2017-04-29T20:53:49.949Z,1007.6
2017-04-29T21:04:00.882Z,1007.6
2017-04-29T21:14:11.833Z,1007.6
2017-04-29T21:24:22.831Z,1007.6
2017-04-29T21:34:33.853Z,1007.5
2017-04-29T21:44:44.834Z,1007.5
2017-04-29T21:54:55.823Z,1007.6
2017-04-29T22:05:06.811Z,1007.6
2017-04-29T22:15:17.860Z,1007.6
2017-04-29T22:25:28.943Z,1007.4
2017-04-29T22:35:40.035Z,1007.4
2017-04-29T22:45:51.228Z,1007.5
2017-04-29T22:56:02.445Z,1007.3
2017-04-29T23:06:13.685Z,1007.3
2017-04-29T23:16:24.912Z,1007.2
2017-04-29T23:26:36.210Z,1007.1
2017-04-29T23:36:47.438Z,1007.1
2017-04-29T23:46:58.735Z,1007.2
2017-04-29T23:57:10.040Z,1007.1
